Latest Coastal Weather Observations for Moorabbin Airport

IDV60701

Issued at 11:25 am EST Thursday 31 July 2014 (issued every 10 minutes, with the page automatically refreshed every 10 minutes)

About coastal observations | Map of coastal stations | Coastal observations for VIC | Marine services | Other Formats
Station Details ID: 086077 Name: MOORABBIN AIRPORT Lat: -37.98 Lon: 145.10 Height: 12.1 m
Data from the previous 72 hours. | See also: Recent months at Moorabbin Airport
Date/Time
EST
Temp

°C
Wind Pressure Rain
since 9am
mm
Weather Cloud Vis
km
Sea
Height
m
Swell
Dir
 
Speed
knots
Gust
knots
hPa Trend Height
m
Period
s
Dir
31/11:00am 16.8 NNW 28 40 997.0 - 0.0 - - 10 - - - -
31/10:30am 16.4 NNW 29 43 997.6 - 0.0 - - 10 - - - -
31/10:00am 16.2 NNW 27 40 997.9 - 0.0 - - 10 - - - -
31/09:30am 15.7 N 28 40 998.2 - 0.0 - - 10 - - - -
31/09:00am 15.3 N 29 40 998.8 - 0.6 - - 10 - - - -
31/08:30am 14.7 N 24 35 999.9 - 0.6 - - 10 - - - -
31/08:00am 14.4 N 25 37 1000.1 - 0.6 - - 10 - - - -
31/07:30am 14.2 N 24 34 1000.5 - 0.6 - - 10 - - - -
31/07:00am 14.0 N 22 33 1001.1 - 0.6 - Partly cloudy 10 - - - -
31/06:30am 13.9 N 22 34 1001.9 - 0.6 - Partly cloudy 10 - - - -
31/06:00am 14.1 N 23 33 1002.5 - 0.6 - Cloudy 10 - - - -
31/05:38am 14.2 N 19 29 1003.1 - 0.6 - Partly cloudy 10 - - - -
31/05:30am 14.2 N 20 29 1003.0 - 0.6 - Partly cloudy 10 - - - -
31/05:24am 14.1 N 19 29 1003.3 - 0.6 - Partly cloudy 10 - - - -
31/05:00am 14.2 N 18 25 1003.5 - 0.6 - Partly cloudy 10 - - - -
31/04:30am 14.0 N 18 28 1003.9 - 0.6 - Cloudy 10 - - - -
31/04:25am 14.0 N 17 28 1004.0 - 0.6 - Cloudy 10 - - - -
31/04:00am 14.2 N 15 22 1004.4 - 0.6 - Cloudy 10 - - - -
31/03:30am 13.9 N 13 21 1005.1 - 0.6 - Cloudy 10 - - - -
31/03:00am 14.2 N 16 22 1005.4 - 0.6 - Mostly cloudy 10 - - - -
31/02:30am 14.6 N 15 24 1005.9 - 0.6 - Partly cloudy 10 - - - -
31/02:00am 14.9 N 17 25 1006.3 - 0.6 - Partly cloudy 10 - - - -
31/01:30am 14.3 N 16 21 1007.2 - 0.6 - Partly cloudy 10 - - - -
31/01:00am 14.2 NNW 13 21 1007.5 - 0.2 - Partly cloudy 7 - - - -
31/12:30am 15.0 N 17 23 1007.6 - 0.0 - Cloudy 10 - - - -
31/12:00am 15.0 N 20 31 1007.7 - 0.0 - Cloudy 10 - - - -
 
Date/Time
EST
Temp

°C
Wind Pressure Rain
since 9am
mm
Weather Cloud Vis
km
Sea
Height
m
Swell
Dir
 
Speed
knots
Gust
knots
hPa Trend Height
m
Period
s
Dir
30/11:51pm 15.1 N 20 31 1008.0 - 0.0 - Partly cloudy 10 - - - -
30/11:30pm 15.4 N 18 24 1008.1 - 0.0 - Cloudy 10 - - - -
30/11:00pm 15.7 N 20 25 1008.4 - 0.0 - Cloudy 10 - - - -
30/10:30pm 15.9 N 18 25 1008.9 - 0.0 - Cloudy 10 - - - -
30/10:00pm 15.8 NNW 18 25 1009.2 - 0.0 - Cloudy 10 - - - -
30/09:30pm 15.7 NNW 17 25 1009.4 - 0.0 - Cloudy 10 - - - -
30/09:00pm 16.1 NNW 16 27 1009.4 - 0.0 - Cloudy 10 - - - -
30/08:56pm 16.2 NNW 17 27 1009.5 - 0.0 - Partly cloudy 10 - - - -
30/08:30pm 16.1 NNW 17 23 1009.4 - 0.0 - Partly cloudy 10 - - - -
30/08:16pm 16.3 NNW 17 27 1009.5 - 0.0 - Partly cloudy 10 - - - -
30/08:00pm 16.5 NNW 18 25 1009.3 - 0.0 - Partly cloudy 10 - - - -
30/07:30pm 16.1 N 16 23 1009.6 - 0.0 - Partly cloudy 10 - - - -
30/07:00pm 15.7 N 15 19 1009.7 - 0.0 - Partly cloudy 10 - - - -
30/06:30pm 16.4 N 14 19 1009.5 - 0.0 - Partly cloudy 10 - - - -
30/06:00pm 16.4 NNW 15 23 1009.3 - 0.0 - Mostly cloudy 10 - - - -
30/05:30pm 16.4 NNW 17 28 1009.2 - 0.0 - - 10 - - - -
30/05:26pm 16.2 NNW 17 27 1009.2 - 0.0 - - 10 - - - -
30/05:00pm 16.6 NNW 18 25 1009.1 - 0.0 - - 10 - - - -
30/04:49pm 16.7 NNW 15 25 1009.2 - 0.0 - Partly cloudy 10 - - - -
30/04:30pm 16.9 NNW 15 20 1009.3 - 0.0 - Partly cloudy 10 - - - -
30/04:00pm 17.1 NNW 17 26 1009.3 - 0.0 - Cloudy 10 - - - -
30/03:30pm 17.5 NW 15 25 1009.2 - 0.0 - Partly cloudy 10 - - - -
30/03:29pm 17.2 NW 15 25 1009.2 - 0.0 - Partly cloudy 10 - - - -
30/03:00pm 17.5 NW 17 25 1009.2 - 0.0 - Cloudy 10 - - - -
30/02:30pm 17.5 NW 15 25 1008.9 - 0.0 - Partly cloudy 10 - - - -
30/02:23pm 17.5 NNW 15 25 1008.9 - 0.0 - Partly cloudy 10 - - - -
30/02:00pm 17.2 NNW 17 23 1009.0 - 0.0 - Partly cloudy 10 - - - -
30/01:30pm 17.4 NW 17 25 1009.6 - 0.0 - Partly cloudy 10 - - - -
30/01:27pm 17.2 NW 20 25 1009.6 - 0.0 - Partly cloudy 10 - - - -
30/01:00pm 16.9 N 15 21 1010.0 - 0.0 - Partly cloudy 10 - - - -
30/12:30pm 16.7 NNW 13 19 1010.7 - 0.0 - Partly cloudy 10 - - - -
30/12:00pm 17.3 NNW 15 22 1010.9 - 0.0 - Mostly cloudy 10 - - - -
30/11:30am 16.3 NNW 12 16 1011.8 - 0.0 - Partly cloudy 10 - - - -
30/11:00am 15.7 NNW 15 21 1012.2 - 0.0 - Cloudy 10 - - - -
30/10:30am 15.0 NNW 15 21 1012.8 - 0.0 - Partly cloudy 8 - - - -
30/10:00am 15.2 NNW 12 17 1012.8 - 0.0 - Partly cloudy 10 - - - -
30/09:30am 14.7 NNW 15 21 1012.3 - 0.0 - Partly cloudy 10 - - - -
30/09:00am 13.9 N 13 22 1012.1 - 2.8 - Cloudy 10 - - - -
30/08:30am 13.1 N 11 16 1012.1 - 2.8 - Partly cloudy 10 - - - -
30/08:00am 12.1 N 10 12 1012.0 - 2.8 - Partly cloudy 10 - - - -
30/07:30am 12.0 N 9 11 1012.0 - 2.8 - Partly cloudy 10 - - - -
30/07:00am 10.9 N 7 9 1012.0 - 2.8 - Partly cloudy 10 - - - -
30/06:30am 11.9 NNW 7 8 1012.0 - 2.8 - - 10 - - - -
30/06:00am 11.3 NNW 7 9 1011.8 - 2.8 - Partly cloudy 10 - - - -
30/05:30am 11.3 NNW 5 6 1011.7 - 2.8 - Partly cloudy 10 - - - -
30/05:15am 11.7 WNW 8 11 1011.6 - 2.8 - Partly cloudy 10 - - - -
30/05:00am 11.8 W 12 18 1011.5 - 2.8 - Partly cloudy 4 - - - -
30/04:35am 11.8 W 15 25 1011.6 - 2.4 - Partly cloudy 2 - - - -
30/04:30am 11.8 W 16 25 1011.5 - 2.4 - Partly cloudy 2 - - - -
30/04:23am 12.3 W 14 24 1011.5 - 2.0 - Partly cloudy 5 - - - -
30/04:00am 14.4 NW 11 18 1010.9 - 1.8 - Partly cloudy 10 - - - -
30/03:30am 14.5 NW 10 13 1010.8 - 1.8 - Partly cloudy 10 - - - -
30/03:00am 14.6 NW 11 15 1010.7 - 1.8 - Mostly cloudy 10 - - - -
30/02:30am 14.3 NNW 9 15 1010.9 - 1.8 - Partly cloudy 10 - - - -
30/02:00am 12.8 N 7 11 1010.9 - 1.8 - Partly cloudy 10 - - - -
30/01:30am 13.1 WNW 6 11 1011.0 - 1.8 - Partly cloudy 10 - - - -
30/01:10am 12.9 WNW 10 15 1011.1 - 1.8 - Partly cloudy 10 - - - -
30/01:00am 13.0 NW 12 20 1010.9 - 1.8 - Partly cloudy 5 - - - -
30/12:54am 13.1 WNW 14 24 1011.1 - 1.8 - Partly cloudy 5 - - - -
30/12:44am 13.9 NW 12 23 1011.0 - 1.8 - Partly cloudy 10 - - - -
30/12:30am 14.0 WNW 12 20 1010.9 - 1.8 - Partly cloudy 4 - - - -
30/12:24am 14.4 NW 12 18 1011.1 - 1.2 - Partly cloudy 5 - - - -
30/12:00am 15.2 NW 10 15 1010.2 - 0.8 - Cloudy 10 - - - -
 
Date/Time
EST
Temp

°C
Wind Pressure Rain
since 9am
mm
Weather Cloud Vis
km
Sea
Height
m
Swell
Dir
 
Speed
knots
Gust
knots
hPa Trend Height
m
Period
s
Dir
29/11:30pm 15.0 NW 15 25 1010.2 - 0.8 - Partly cloudy 10 - - - -
29/11:11pm 15.9 NW 15 26 1010.0 - 0.8 - Partly cloudy 10 - - - -
29/11:00pm 15.3 NW 12 18 1010.0 - 0.8 - Cloudy 10 - - - -
29/10:30pm 14.7 NNW 12 16 1009.7 - 0.8 - Partly cloudy 10 - - - -
29/10:00pm 14.6 N 13 19 1009.5 - 0.4 - Cloudy 10 - - - -
29/09:30pm 15.7 NNW 12 19 1009.5 - 0.4 - Partly cloudy 10 - - - -
29/09:00pm 16.1 NNW 13 19 1009.3 - 0.4 - Cloudy 10 - - - -
29/08:50pm 16.1 NW 15 25 1009.3 - 0.4 - Partly cloudy 10 - - - -
29/08:30pm 15.9 NNW 13 19 1009.1 - 0.4 - Partly cloudy 10 - - - -
29/08:00pm 16.0 NNW 12 18 1009.1 - 0.4 - Partly cloudy 10 - - - -
29/07:30pm 16.0 NNW 13 19 1009.0 - 0.4 - Partly cloudy 10 - - - -
29/07:00pm 15.3 N 16 22 1008.5 - 0.4 - Partly cloudy 10 - - - -
29/06:30pm 15.5 N 16 24 1008.1 - 0.4 - Partly cloudy 10 - - - -
29/06:00pm 15.2 NNW 16 23 1008.0 - 0.4 - Cloudy 10 - - - -
29/05:30pm 14.6 NNW 13 20 1007.9 - 0.4 - Partly cloudy 10 - - - -
29/05:19pm 14.2 NNW 15 19 1008.0 - 0.4 - Partly cloudy 10 - - - -
29/05:00pm 13.8 NNW 19 27 1008.0 - 0.2 - Partly cloudy 5 - - - -
29/04:54pm 14.0 NNW 20 27 1007.8 - 0.0 - Partly cloudy 5 - - - -
29/04:30pm 15.1 N 21 31 1006.6 - 0.0 - Cloudy 10 - - - -
29/04:18pm 15.3 N 20 31 1006.4 - 0.0 - Cloudy 10 - - - -
29/04:00pm 14.6 N 20 26 1006.5 - 0.0 - Partly cloudy 10 - - - -
29/03:30pm 14.5 N 18 26 1007.1 - 0.0 - Partly cloudy 10 - - - -
29/03:04pm 14.4 N 18 28 1007.5 - 0.0 - Cloudy 10 - - - -
29/03:00pm 14.5 N 20 29 1007.2 - 0.0 - Mostly cloudy 10 - - - -
29/02:30pm 14.2 N 26 36 1006.7 - 0.0 - Partly cloudy 10 - - - -
29/02:16pm 14.2 N 24 34 1006.8 - 0.0 - Partly cloudy 10 - - - -
29/02:00pm 14.2 N 24 31 1007.1 - 0.0 - Cloudy 10 - - - -
29/01:30pm 14.4 N 21 31 1007.0 - 0.0 - Partly cloudy 10 - - - -
29/01:00pm 13.8 N 24 34 1007.2 - 0.0 - Partly cloudy 10 - - - -
29/12:39pm 14.0 N 23 35 1007.4 - 0.0 - Partly cloudy 10 - - - -
29/12:30pm 14.5 N 23 32 1007.7 - 0.0 - Partly cloudy 10 - - - -
29/12:17pm 14.3 N 21 31 1008.0 - 0.0 - Partly cloudy 10 - - - -
29/12:00pm 13.8 N 21 30 1008.0 - 0.0 - Mostly cloudy 10 - - - -
29/11:40am 14.2 N 20 30 1008.6 - 0.0 - Cloudy 10 - - - -
29/11:30am 13.5 N 21 29 1008.2 - 0.0 - Partly cloudy 10 - - - -
29/11:01am 13.3 N 23 33 1008.9 - 0.0 - Partly cloudy 10 - - - -
29/11:00am 13.3 N 24 33 1008.8 - 0.0 - Partly cloudy 10 - - - -
29/10:50am 13.3 N 23 33 1008.6 - 0.0 - Partly cloudy 10 - - - -
29/10:30am 13.7 N 22 31 1008.9 - 0.0 - Cloudy 10 - - - -
29/10:00am 12.6 N 22 29 1008.6 - 0.0 - Partly cloudy 10 - - - -
29/09:30am 13.0 N 20 27 1009.0 - 0.0 - Partly cloudy 10 - - - -
29/09:00am 12.3 N 17 23 1009.4 - 0.0 - Cloudy 10 - - - -
29/08:50am 12.4 N 17 27 1009.3 - 0.0 - Partly cloudy 10 - - - -
29/08:30am 11.9 N 19 26 1009.3 - 0.0 - Partly cloudy 10 - - - -
29/08:00am 11.9 N 20 29 1009.5 - 0.0 - Partly cloudy 10 - - - -
29/07:30am 11.7 N 17 23 1009.7 - 0.0 - Cloudy 10 - - - -
29/07:00am 11.6 N 18 25 1009.3 - 0.0 - Partly cloudy 10 - - - -
29/06:30am 11.7 N 20 30 1009.0 - 0.0 - Partly cloudy 10 - - - -
29/06:25am 11.7 N 20 30 1008.7 - 0.0 - Partly cloudy 10 - - - -
29/06:00am 11.7 N 22 28 1008.7 - 0.0 - - 10 - - - -
29/05:31am 11.8 N 19 29 1008.6 - 0.0 - - 10 - - - -
29/05:30am 11.8 N 20 29 1008.5 - 0.0 - - 10 - - - -
29/05:04am 11.9 N 20 30 1008.7 - 0.0 - - 10 - - - -
29/05:00am 12.0 N 21 30 1008.6 - 0.0 - - 10 - - - -
29/04:30am 12.2 N 20 28 1008.8 - 0.0 - - 10 - - - -
29/04:00am 12.3 N 18 24 1009.4 - 0.0 - Partly cloudy 10 - - - -
29/03:30am 12.5 N 18 27 1009.6 - 0.0 - Partly cloudy 10 - - - -
29/03:00am 12.5 N 18 24 1009.4 - 0.0 - Mostly cloudy 10 - - - -
29/02:30am 12.3 N 17 23 1010.0 - 0.0 - Partly cloudy 10 - - - -
29/02:00am 12.2 N 16 20 1010.8 - 0.0 - Partly cloudy 10 - - - -
29/01:30am 12.0 N 16 22 1011.1 - 0.0 - - 10 - - - -
29/01:00am 12.1 N 17 21 1011.3 - 0.0 - - 10 - - - -
29/12:30am 12.3 N 17 22 1011.8 - 0.0 - Partly cloudy 10 - - - -
29/12:00am 12.8 N 15 21 1012.2 - 0.0 - Mostly cloudy 10 - - - -
 
Date/Time
EST
Temp

°C
Wind Pressure Rain
since 9am
mm
Weather Cloud Vis
km
Sea
Height
m
Swell
Dir
 
Speed
knots
Gust
knots
hPa Trend Height
m
Period
s
Dir
28/11:30pm 13.1 N 16 21 1012.5 - 0.0 - Partly cloudy 10 - - - -
28/11:00pm 13.3 N 14 20 1012.6 - 0.0 - - 10 - - - -
28/10:30pm 13.2 N 17 24 1012.7 - 0.0 - - 10 - - - -
28/10:00pm 13.1 N 17 23 1012.6 - 0.0 - - 10 - - - -
28/09:30pm 13.2 N 15 20 1012.4 - 0.0 - - 10 - - - -
28/09:00pm 13.5 N 17 23 1012.4 - 0.0 - - 10 - - - -
28/08:30pm 13.4 N 15 24 1012.7 - 0.0 - - 10 - - - -
28/08:00pm 13.7 N 15 20 1012.6 - 0.0 - - 10 - - - -
28/07:30pm 13.7 N 15 21 1012.2 - 0.0 - - 10 - - - -
28/07:00pm 13.6 N 15 21 1012.1 - 0.0 - - 10 - - - -
28/06:30pm 13.4 N 14 18 1012.3 - 0.0 - - 10 - - - -
28/06:00pm 13.4 N 13 19 1012.4 - 0.0 - - 10 - - - -
28/05:30pm 14.3 N 12 16 1012.2 - 0.0 - - 10 - - - -
28/05:00pm 15.2 N 12 21 1012.3 - 0.0 - Partly cloudy 10 - - - -
28/04:30pm 15.5 N 15 20 1012.3 - 0.0 - - 10 - - - -
28/04:01pm 15.7 N 17 27 1012.2 - 0.0 - - 10 - - - -
28/04:00pm 15.6 N 18 27 1012.2 - 0.0 - - 10 - - - -
28/03:52pm 15.8 N 16 27 1011.8 - 0.0 - - 10 - - - -
28/03:30pm 16.0 N 19 28 1011.2 - 0.0 - - 10 - - - -
28/03:27pm 16.0 N 18 28 1011.3 - 0.0 - - 10 - - - -
28/03:00pm 16.3 N 18 25 1011.3 - 0.0 - - 10 - - - -
28/02:30pm 16.4 N 18 24 1012.1 - 0.0 - - 10 - - - -
28/02:00pm 17.0 N 17 22 1012.3 - 0.0 - Partly cloudy 10 - - - -
28/01:30pm 17.4 N 16 23 1012.6 - 0.0 - Partly cloudy 10 - - - -
28/01:00pm 16.3 N 16 23 1013.2 - 0.0 - Partly cloudy 10 - - - -
28/12:30pm 16.4 N 16 21 1013.7 - 0.0 - Partly cloudy 10 - - - -
28/12:00pm 15.1 N 16 23 1014.0 - 0.0 - Partly cloudy 10 - - - -
28/11:30am 14.6 N 18 26 1014.5 - 0.0 - Cloudy 10 - - - -

Other Formats:

Comma delimited format used in spreadsheet applications
http://www.bom.gov.au/fwo/IDV60701/IDV60701.94870.axf

JavaScript Object Notation format (JSON) in row-major order
http://www.bom.gov.au/fwo/IDV60701/IDV60701.94870.json